TAF and METAR

Decoding for American and Canadian METARs and TAFs is not fully implemented.

Could not understand the following METAR

KVLD 292134Z 00000KT 10SM -RA SCT038 BKN055 OVC110 24/22 A3003 RMK AO2 LTG DSNT E TSE18 P0000 T02390217 $

TAF for Valdosta Regional Airport

KVLD 291720Z 2918/3018 16004KT P6SM VCTS BKN040CB TEMPO 2920/2924 4SM TSRA OVC025CB FM300200 00000KT P6SM SCT035 FM301000 00000KT P6SM BKN020 PROB30 3014/3016 4SM TSRA OVC015CB FM301600 VRB03KT P6SM SCT027 PROB30 3016/3018 4SM TSRA BKN027CB
Report created 29. mai 19:20

between 29. mai 20:00 - 30. mai 20:00

wind 4 knots from SSE (160°)